createdAt,value
2023-02-08T00:00:15.629Z,54.69
2023-02-08T00:02:42.809Z,54.83
2023-02-08T00:05:10.065Z,55.46
2023-02-08T00:07:37.328Z,55.11
2023-02-08T00:10:06.265Z,55.16
2023-02-08T00:12:35.840Z,55.05
2023-02-08T00:15:03.928Z,55.05
2023-02-08T00:17:31.337Z,55.00
2023-02-08T00:19:58.285Z,55.10
2023-02-08T00:22:25.080Z,55.05
2023-02-08T00:24:51.941Z,54.97
2023-02-08T00:27:18.945Z,55.06
2023-02-08T00:29:46.349Z,54.94
2023-02-08T00:32:13.554Z,55.04
2023-02-08T00:34:41.762Z,54.99
2023-02-08T00:37:10.543Z,55.15
2023-02-08T00:39:37.743Z,55.11
2023-02-08T00:42:04.784Z,55.07
2023-02-08T00:44:32.909Z,55.17
2023-02-08T00:46:59.750Z,55.03
2023-02-08T00:49:26.613Z,55.13
2023-02-08T00:51:53.580Z,55.09
2023-02-08T00:54:20.631Z,55.26
2023-02-08T00:56:47.678Z,55.11
2023-02-08T00:59:14.560Z,55.18
2023-02-08T01:01:44.024Z,55.25
2023-02-08T01:04:11.176Z,55.39
2023-02-08T01:06:42.571Z,55.22
2023-02-08T01:09:11.756Z,55.33
2023-02-08T01:11:38.816Z,55.31
2023-02-08T01:14:05.934Z,55.39
2023-02-08T01:16:33.359Z,55.20
2023-02-08T01:19:01.148Z,55.23
2023-02-08T01:21:29.998Z,55.29
2023-02-08T01:24:01.586Z,55.34
2023-02-08T01:26:34.468Z,55.37
2023-02-08T01:29:01.694Z,55.46
2023-02-08T01:31:33.918Z,55.42
2023-02-08T01:34:00.816Z,55.45
2023-02-08T01:36:28.072Z,55.51
2023-02-08T01:38:54.971Z,55.89
2023-02-08T01:41:26.709Z,55.79
2023-02-08T01:44:12.128Z,55.91
2023-02-08T01:46:42.325Z,55.75
2023-02-08T01:49:19.455Z,55.91
2023-02-08T01:51:52.201Z,55.74
2023-02-08T01:54:21.556Z,55.78
2023-02-08T01:56:48.631Z,55.79
2023-02-08T01:59:56.538Z,55.95
2023-02-08T02:02:24.936Z,55.91
2023-02-08T02:04:53.674Z,56.01
2023-02-08T02:07:21.325Z,56.14
2023-02-08T02:09:51.281Z,56.07
2023-02-08T02:12:19.631Z,56.00
2023-02-08T02:14:46.480Z,56.21
2023-02-08T02:17:13.474Z,56.13
2023-02-08T02:20:09.798Z,56.30
2023-02-08T02:22:58.308Z,56.38
2023-02-08T02:25:44.938Z,56.36
2023-02-08T02:28:34.107Z,56.70
2023-02-08T02:31:21.707Z,56.44
2023-02-08T02:33:53.091Z,56.38
2023-02-08T02:36:52.007Z,56.54
2023-02-08T02:39:31.039Z,56.45
2023-02-08T02:42:33.667Z,56.65
2023-02-08T02:45:15.541Z,56.68
2023-02-08T02:47:49.452Z,56.69
2023-02-08T02:50:53.446Z,56.56
2023-02-08T02:53:28.841Z,56.63
2023-02-08T02:56:01.168Z,56.64
2023-02-08T02:58:28.076Z,56.74
2023-02-08T03:00:56.128Z,56.71
2023-02-08T03:03:25.952Z,56.51
2023-02-08T03:05:56.054Z,56.54
2023-02-08T03:09:03.578Z,56.54
2023-02-08T03:11:32.721Z,56.45
2023-02-08T03:14:12.591Z,56.52
2023-02-08T03:17:07.696Z,56.68
2023-02-08T03:20:26.154Z,56.62
2023-02-08T03:23:10.888Z,56.60
2023-02-08T03:25:50.804Z,56.67
2023-02-08T03:28:20.384Z,56.62
2023-02-08T03:30:56.499Z,56.74
2023-02-08T03:33:35.411Z,56.60
2023-02-08T03:36:10.241Z,56.49
2023-02-08T03:38:40.252Z,56.64
2023-02-08T03:41:09.774Z,56.60
2023-02-08T03:43:40.549Z,56.59
2023-02-08T03:46:15.250Z,56.76
2023-02-08T03:48:49.218Z,56.64
2023-02-08T03:51:16.008Z,56.79
2023-02-08T03:53:44.230Z,56.64
2023-02-08T03:56:20.341Z,56.81
2023-02-08T03:58:55.527Z,56.67
2023-02-08T04:01:36.336Z,56.76
2023-02-08T04:04:03.441Z,57.14
2023-02-08T04:06:32.172Z,56.98
2023-02-08T04:08:58.972Z,57.02
2023-02-08T04:11:28.347Z,57.23
2023-02-08T04:13:56.018Z,57.06
2023-02-08T04:16:22.908Z,57.06
2023-02-08T04:18:50.033Z,57.01
2023-02-08T04:21:17.020Z,57.14
2023-02-08T04:23:44.077Z,57.14
2023-02-08T04:26:10.918Z,56.93
2023-02-08T04:28:37.700Z,57.03
2023-02-08T04:31:04.731Z,57.07
2023-02-08T04:33:31.825Z,57.12
2023-02-08T04:35:59.192Z,56.94
2023-02-08T04:38:26.114Z,57.20
2023-02-08T04:40:52.852Z,57.34
2023-02-08T04:43:19.652Z,57.21
2023-02-08T04:45:49.541Z,57.57
2023-02-08T04:48:17.031Z,57.58
2023-02-08T04:50:43.915Z,57.31
2023-02-08T04:53:10.689Z,57.66
2023-02-08T04:55:37.674Z,57.68
2023-02-08T04:58:04.603Z,57.44
2023-02-08T05:00:31.819Z,57.77
2023-02-08T05:03:01.551Z,57.44
2023-02-08T05:05:28.572Z,57.82
2023-02-08T05:07:57.035Z,57.92
2023-02-08T05:10:24.012Z,57.72
2023-02-08T05:12:50.892Z,57.80
2023-02-08T05:15:17.941Z,58.00
2023-02-08T05:17:45.288Z,57.84
2023-02-08T05:20:13.197Z,57.80
2023-02-08T05:22:40.132Z,58.00
2023-02-08T05:25:07.609Z,58.06
2023-02-08T05:27:35.157Z,58.10
2023-02-08T05:30:03.204Z,57.88
2023-02-08T05:32:30.595Z,57.77
2023-02-08T05:34:57.397Z,58.05
2023-02-08T05:37:24.740Z,57.96
2023-02-08T05:39:51.815Z,58.12
2023-02-08T05:42:18.609Z,58.03
2023-02-08T05:44:45.525Z,57.85
2023-02-08T05:47:12.905Z,58.01
2023-02-08T05:49:39.943Z,58.17
2023-02-08T05:52:07.107Z,58.11
2023-02-08T05:54:34.648Z,58.03
2023-02-08T05:57:01.517Z,58.08
2023-02-08T05:59:28.801Z,58.20
2023-02-08T06:01:55.676Z,58.08
2023-02-08T06:04:22.641Z,57.99
2023-02-08T06:06:49.578Z,58.05
2023-02-08T06:09:16.494Z,57.90
2023-02-08T06:11:44.249Z,57.96
2023-02-08T06:14:13.452Z,57.79
2023-02-08T06:16:40.518Z,57.68
2023-02-08T06:19:07.322Z,57.81
2023-02-08T06:21:34.319Z,57.64
2023-02-08T06:24:03.402Z,57.65
2023-02-08T06:26:30.217Z,57.59
2023-02-08T06:28:58.633Z,57.52
2023-02-08T06:31:25.476Z,57.49
2023-02-08T06:33:52.738Z,57.32
2023-02-08T06:36:19.578Z,57.19
2023-02-08T06:38:46.778Z,57.21
2023-02-08T06:41:13.592Z,56.98
2023-02-08T06:43:40.757Z,56.92
2023-02-08T06:46:08.158Z,56.78
2023-02-08T06:48:35.240Z,56.74
2023-02-08T06:51:02.058Z,56.77
2023-02-08T06:53:29.258Z,56.73
2023-02-08T06:55:56.261Z,56.45
2023-02-08T06:58:23.143Z,56.35
2023-02-08T07:00:50.553Z,56.34
2023-02-08T07:03:17.421Z,56.25
2023-02-08T07:05:58.723Z,56.31
2023-02-08T07:08:32.860Z,56.16
2023-02-08T07:11:15.384Z,56.07
2023-02-08T07:13:47.153Z,55.96
2023-02-08T07:16:14.400Z,55.89
2023-02-08T07:18:41.627Z,55.87
2023-02-08T07:21:10.097Z,55.65
2023-02-08T07:23:38.885Z,55.43
2023-02-08T07:26:07.670Z,55.47
2023-02-08T07:28:36.872Z,55.34
2023-02-08T07:31:08.123Z,55.14
2023-02-08T07:33:35.053Z,54.96
2023-02-08T07:36:04.816Z,54.82
2023-02-08T07:38:33.256Z,54.64
2023-02-08T07:41:04.912Z,54.51
2023-02-08T07:43:33.010Z,54.14
2023-02-08T07:46:17.772Z,53.92
2023-02-08T07:48:44.852Z,53.98
2023-02-08T07:51:11.927Z,53.72
2023-02-08T07:53:39.904Z,53.41
2023-02-08T07:56:06.840Z,53.19
2023-02-08T07:58:36.886Z,53.19
2023-02-08T08:01:19.594Z,52.80
2023-02-08T08:03:49.859Z,52.50
2023-02-08T08:06:18.265Z,52.51
2023-02-08T08:08:47.105Z,52.58
2023-02-08T08:11:15.139Z,52.37
2023-02-08T08:13:43.209Z,52.15
2023-02-08T08:16:09.995Z,51.96
2023-02-08T08:18:37.054Z,51.95
2023-02-08T08:21:04.504Z,51.94
2023-02-08T08:23:32.825Z,51.73
2023-02-08T08:26:00.154Z,51.45
2023-02-08T08:28:27.310Z,51.22
2023-02-08T08:30:54.450Z,51.32
2023-02-08T08:33:21.322Z,51.28
2023-02-08T08:35:48.524Z,51.10
2023-02-08T08:38:15.591Z,50.95
2023-02-08T08:40:42.996Z,50.98
2023-02-08T08:43:10.533Z,50.65
2023-02-08T08:45:37.767Z,50.45
2023-02-08T08:48:05.395Z,50.14
2023-02-08T08:50:33.629Z,49.97
2023-02-08T08:53:00.652Z,50.00
2023-02-08T08:55:27.873Z,49.74
2023-02-08T08:57:54.836Z,49.47
2023-02-08T09:00:22.456Z,49.05
2023-02-08T09:02:49.546Z,49.08
2023-02-08T09:05:16.398Z,49.12
2023-02-08T09:07:43.498Z,48.42
2023-02-08T09:10:15.522Z,48.37
2023-02-08T09:12:42.766Z,48.15
2023-02-08T09:15:11.203Z,47.96
2023-02-08T09:17:39.391Z,47.93
2023-02-08T09:20:06.755Z,47.53
2023-02-08T09:22:33.707Z,47.27
2023-02-08T09:25:01.594Z,47.21
2023-02-08T09:27:29.316Z,47.29
2023-02-08T09:29:56.660Z,46.82
2023-02-08T09:32:23.576Z,46.39
2023-02-08T09:34:51.253Z,45.81
2023-02-08T09:37:19.066Z,45.37
2023-02-08T09:39:46.115Z,45.32
2023-02-08T09:42:20.916Z,45.16
2023-02-08T09:45:21.728Z,44.86
2023-02-08T09:48:00.160Z,44.62
2023-02-08T09:50:42.015Z,44.55
2023-02-08T09:53:17.666Z,44.67
2023-02-08T09:55:46.358Z,44.77
2023-02-08T09:58:17.674Z,44.22
2023-02-08T10:00:46.993Z,44.06
2023-02-08T10:03:42.020Z,43.48
2023-02-08T10:06:11.328Z,43.60
2023-02-08T10:08:38.127Z,43.51
2023-02-08T10:11:38.418Z,43.46
2023-02-08T10:14:08.687Z,43.23
2023-02-08T10:16:47.100Z,43.15
2023-02-08T10:19:46.464Z,43.19
2023-02-08T10:22:32.727Z,43.18
2023-02-08T10:25:22.283Z,43.05
2023-02-08T10:28:10.162Z,42.97
2023-02-08T10:30:42.562Z,42.82
2023-02-08T10:33:31.867Z,42.58
2023-02-08T10:35:58.819Z,42.68
2023-02-08T10:38:45.456Z,42.69
2023-02-08T10:41:29.363Z,42.31
2023-02-08T10:44:18.052Z,42.34
2023-02-08T10:46:52.340Z,42.54
2023-02-08T10:49:29.080Z,42.53
2023-02-08T10:51:55.977Z,42.50
2023-02-08T10:54:22.896Z,42.59
2023-02-08T10:56:57.995Z,42.54
2023-02-08T10:59:35.360Z,42.45
2023-02-08T11:02:02.176Z,42.11
2023-02-08T11:04:29.237Z,42.23
2023-02-08T11:06:58.019Z,42.38
2023-02-08T11:09:28.936Z,42.13
2023-02-08T11:11:57.117Z,42.12
2023-02-08T11:14:45.962Z,42.16
2023-02-08T11:17:26.172Z,41.58
2023-02-08T11:19:53.155Z,41.95
2023-02-08T11:22:21.816Z,41.70
2023-02-08T11:25:05.117Z,41.46
2023-02-08T11:27:34.288Z,41.36
2023-02-08T11:30:15.011Z,41.60
2023-02-08T11:32:43.636Z,41.42
2023-02-08T11:35:22.132Z,41.99
2023-02-08T11:37:52.958Z,41.58
2023-02-08T11:40:42.496Z,41.58
2023-02-08T11:43:33.526Z,41.81
2023-02-08T11:46:01.717Z,41.54
2023-02-08T11:48:55.481Z,41.59
2023-02-08T11:51:29.597Z,41.69
2023-02-08T11:53:59.970Z,41.87
2023-02-08T11:56:31.432Z,42.08
2023-02-08T11:59:15.746Z,42.09
2023-02-08T12:01:43.182Z,41.78
2023-02-08T12:04:12.275Z,42.24
2023-02-08T12:07:14.899Z,42.16
2023-02-08T12:09:56.982Z,41.90
2023-02-08T12:12:46.767Z,41.81
2023-02-08T12:15:16.400Z,41.83
2023-02-08T12:18:16.731Z,42.13
2023-02-08T12:20:45.094Z,42.38
2023-02-08T12:23:28.229Z,42.29
2023-02-08T12:26:07.469Z,41.72
2023-02-08T12:28:52.352Z,42.12
2023-02-08T12:31:24.304Z,41.66
2023-02-08T12:34:20.831Z,41.76
2023-02-08T12:37:15.096Z,41.64
2023-02-08T12:40:06.254Z,41.34
2023-02-08T12:43:08.309Z,41.53
2023-02-08T12:45:53.330Z,41.59
2023-02-08T12:48:49.332Z,41.89
2023-02-08T12:51:30.072Z,41.77
2023-02-08T12:53:59.244Z,41.21
2023-02-08T12:56:31.256Z,41.48
2023-02-08T12:59:11.780Z,41.63
2023-02-08T13:01:43.806Z,41.82
2023-02-08T13:04:15.189Z,42.05
2023-02-08T13:06:51.468Z,42.16
2023-02-08T13:09:35.400Z,42.43
2023-02-08T13:12:12.270Z,42.92
2023-02-08T13:14:42.358Z,43.11
2023-02-08T13:17:17.910Z,43.15
2023-02-08T13:19:59.773Z,43.13
2023-02-08T13:22:30.333Z,43.58
2023-02-08T13:25:06.968Z,43.63
2023-02-08T13:27:34.847Z,43.80
2023-02-08T13:30:01.976Z,43.96
2023-02-08T13:32:36.250Z,43.96
2023-02-08T13:35:11.443Z,44.03
2023-02-08T13:37:40.090Z,44.31
2023-02-08T13:40:10.251Z,44.32
2023-02-08T13:42:42.764Z,44.37
2023-02-08T13:45:10.628Z,44.49
2023-02-08T13:47:48.051Z,44.87
2023-02-08T13:50:29.122Z,44.83
2023-02-08T13:52:56.666Z,44.81
2023-02-08T13:55:35.520Z,44.90
2023-02-08T13:58:14.900Z,45.10
2023-02-08T14:00:56.835Z,45.28
2023-02-08T14:03:28.060Z,45.20
2023-02-08T14:05:58.125Z,45.19
2023-02-08T14:08:43.798Z,45.50
2023-02-08T14:11:34.552Z,45.60
2023-02-08T14:14:04.419Z,45.71
2023-02-08T14:16:32.288Z,45.92
2023-02-08T14:19:25.652Z,45.92
2023-02-08T14:22:00.506Z,45.94
2023-02-08T14:24:34.770Z,45.86
2023-02-08T14:27:21.569Z,46.10
2023-02-08T14:30:20.694Z,46.13
2023-02-08T14:32:51.052Z,46.37
2023-02-08T14:35:20.264Z,46.50
2023-02-08T14:37:47.721Z,46.48
2023-02-08T14:40:25.021Z,46.52
2023-02-08T14:42:52.317Z,46.45
2023-02-08T14:45:33.766Z,46.61
2023-02-08T14:48:19.780Z,46.19
2023-02-08T14:51:11.126Z,46.12
2023-02-08T14:53:41.240Z,46.06
2023-02-08T14:56:22.465Z,45.94
2023-02-08T14:58:52.929Z,45.73
2023-02-08T15:01:22.248Z,46.03
2023-02-08T15:03:50.226Z,46.20
2023-02-08T15:06:20.212Z,46.36
2023-02-08T15:08:51.685Z,46.65
2023-02-08T15:11:26.820Z,46.67
2023-02-08T15:13:54.691Z,46.81
2023-02-08T15:16:22.075Z,47.02
2023-02-08T15:18:50.066Z,47.24
2023-02-08T15:21:23.145Z,47.21
2023-02-08T15:24:18.856Z,47.57
2023-02-08T15:26:53.220Z,47.65
2023-02-08T15:29:26.122Z,47.69
2023-02-08T15:31:57.132Z,47.79
2023-02-08T15:34:25.041Z,48.01
2023-02-08T15:36:55.775Z,47.76
2023-02-08T15:39:35.041Z,48.01
2023-02-08T15:42:01.823Z,47.95
2023-02-08T15:44:30.626Z,47.99
2023-02-08T15:47:02.588Z,48.23
2023-02-08T15:49:31.237Z,48.15
2023-02-08T15:51:58.397Z,48.39
2023-02-08T15:54:25.506Z,48.49
2023-02-08T15:56:59.432Z,48.81
2023-02-08T15:59:32.366Z,48.89
2023-02-08T16:02:05.344Z,49.08
2023-02-08T16:04:40.825Z,49.07
2023-02-08T16:07:22.336Z,49.16
2023-02-08T16:09:49.197Z,49.38
2023-02-08T16:12:20.922Z,49.39
2023-02-08T16:14:52.804Z,49.57
2023-02-08T16:17:43.171Z,49.96
2023-02-08T16:20:33.949Z,50.16
2023-02-08T16:23:03.356Z,50.21
2023-02-08T16:25:34.907Z,50.34
2023-02-08T16:28:05.567Z,50.65
2023-02-08T16:30:34.041Z,50.77
2023-02-08T16:33:07.703Z,51.11
2023-02-08T16:35:37.194Z,51.50
2023-02-08T16:38:05.728Z,51.59
2023-02-08T16:40:52.985Z,51.74
2023-02-08T16:43:35.430Z,51.72
2023-02-08T16:46:11.173Z,51.84
2023-02-08T16:48:42.232Z,51.77
2023-02-08T16:51:16.198Z,52.08
2023-02-08T16:53:43.647Z,52.12
2023-02-08T16:56:10.717Z,52.45
2023-02-08T16:58:37.606Z,52.53
2023-02-08T17:01:04.735Z,52.78
2023-02-08T17:03:32.735Z,52.77
2023-02-08T17:06:11.001Z,52.82
2023-02-08T17:08:38.842Z,52.79
2023-02-08T17:11:05.742Z,52.61
2023-02-08T17:13:32.571Z,52.62
2023-02-08T17:15:59.712Z,52.51
2023-02-08T17:18:26.661Z,52.59
2023-02-08T17:20:58.993Z,52.54
2023-02-08T17:23:26.410Z,52.35
2023-02-08T17:25:53.226Z,52.24
2023-02-08T17:28:20.118Z,52.20
2023-02-08T17:30:47.671Z,52.23
2023-02-08T17:33:17.576Z,52.25
2023-02-08T17:35:48.050Z,52.30
2023-02-08T17:38:15.201Z,52.57
2023-02-08T17:40:42.561Z,52.57
2023-02-08T17:43:10.169Z,52.79
2023-02-08T17:45:41.599Z,52.85
2023-02-08T17:48:08.630Z,53.03
2023-02-08T17:50:35.743Z,53.34
2023-02-08T17:53:03.532Z,53.39
2023-02-08T17:55:30.393Z,53.73
2023-02-08T17:57:57.505Z,53.89
2023-02-08T18:00:25.286Z,54.27
2023-02-08T18:02:53.767Z,54.40
2023-02-08T18:05:25.149Z,54.37
2023-02-08T18:07:53.817Z,54.31
2023-02-08T18:10:21.929Z,54.23
2023-02-08T18:12:49.660Z,54.12
2023-02-08T18:15:19.532Z,54.17
2023-02-08T18:17:47.673Z,54.09
2023-02-08T18:20:14.708Z,54.29
2023-02-08T18:22:42.907Z,54.58
2023-02-08T18:25:10.319Z,54.79
2023-02-08T18:27:37.371Z,54.89
2023-02-08T18:30:04.826Z,55.13
2023-02-08T18:32:31.991Z,55.15
2023-02-08T18:35:03.211Z,55.35
2023-02-08T18:37:31.678Z,55.39
2023-02-08T18:39:59.368Z,55.20
2023-02-08T18:42:26.370Z,55.26
2023-02-08T18:44:53.409Z,55.02
2023-02-08T18:47:20.288Z,54.84
2023-02-08T18:49:47.380Z,54.64
2023-02-08T18:52:16.801Z,54.53
2023-02-08T18:54:44.067Z,54.43
2023-02-08T18:57:10.915Z,54.21
2023-02-08T18:59:38.583Z,54.03
2023-02-08T19:02:06.658Z,54.01
2023-02-08T19:04:37.734Z,53.86
2023-02-08T19:07:06.804Z,54.04
2023-02-08T19:09:37.660Z,54.03
2023-02-08T19:12:05.447Z,54.35
2023-02-08T19:14:33.194Z,54.40
2023-02-08T19:17:00.381Z,54.42
2023-02-08T19:19:27.517Z,54.59
2023-02-08T19:21:54.642Z,54.71
2023-02-08T19:24:21.652Z,54.72
2023-02-08T19:26:48.485Z,54.63
2023-02-08T19:29:17.487Z,54.42
2023-02-08T19:31:45.156Z,54.45
2023-02-08T19:34:12.419Z,54.56
2023-02-08T19:36:44.960Z,54.67
2023-02-08T19:39:14.854Z,54.78
2023-02-08T19:41:42.611Z,54.71
2023-02-08T19:44:11.934Z,54.72
2023-02-08T19:46:39.330Z,54.60
2023-02-08T19:49:06.469Z,54.33
2023-02-08T19:51:36.581Z,54.22
2023-02-08T19:54:06.773Z,54.29
2023-02-08T19:56:35.061Z,54.15
2023-02-08T19:59:05.896Z,54.03
2023-02-08T20:01:34.160Z,54.17
2023-02-08T20:04:01.218Z,53.80
2023-02-08T20:06:30.330Z,53.99
2023-02-08T20:09:00.361Z,53.82
2023-02-08T20:11:37.076Z,53.82
2023-02-08T20:14:06.132Z,53.83
2023-02-08T20:16:33.723Z,53.71
2023-02-08T20:19:01.559Z,53.70
2023-02-08T20:21:28.854Z,53.73
2023-02-08T20:23:55.810Z,53.65
2023-02-08T20:26:26.112Z,53.61
2023-02-08T20:28:55.055Z,53.74
2023-02-08T20:31:24.772Z,53.71
2023-02-08T20:33:52.610Z,53.53
2023-02-08T20:36:26.530Z,53.75
2023-02-08T20:38:54.760Z,53.77
2023-02-08T20:41:22.520Z,53.77
2023-02-08T20:43:50.187Z,53.59
2023-02-08T20:46:23.608Z,53.73
2023-02-08T20:48:52.249Z,53.67
2023-02-08T20:51:20.596Z,53.79
2023-02-08T20:53:48.015Z,53.52
2023-02-08T20:56:18.811Z,53.68
2023-02-08T20:58:45.649Z,53.46
2023-02-08T21:01:15.614Z,53.61
2023-02-08T21:03:42.943Z,53.62
2023-02-08T21:06:14.101Z,53.64
2023-02-08T21:08:44.138Z,53.69
2023-02-08T21:11:11.842Z,53.74
2023-02-08T21:13:38.850Z,53.91
2023-02-08T21:16:06.880Z,53.91
2023-02-08T21:18:36.221Z,54.09
2023-02-08T21:21:04.442Z,54.09
2023-02-08T21:23:31.818Z,54.26
2023-02-08T21:25:59.705Z,54.24
2023-02-08T21:28:26.644Z,54.14
2023-02-08T21:31:00.923Z,54.71
2023-02-08T21:33:29.967Z,54.74
2023-02-08T21:36:00.307Z,54.73
2023-02-08T21:38:30.023Z,54.78
2023-02-08T21:40:56.777Z,54.76
2023-02-08T21:43:23.605Z,54.95
2023-02-08T21:45:50.692Z,54.99
2023-02-08T21:48:17.495Z,55.10
2023-02-08T21:51:03.091Z,55.44
2023-02-08T21:53:48.903Z,55.44
2023-02-08T21:56:16.171Z,55.40
2023-02-08T21:58:43.578Z,55.44
2023-02-08T22:01:10.538Z,55.49
2023-02-08T22:03:38.169Z,55.36
2023-02-08T22:06:05.329Z,55.09
2023-02-08T22:08:32.146Z,54.99
2023-02-08T22:11:04.027Z,55.05
2023-02-08T22:13:32.870Z,55.42
2023-02-08T22:16:01.916Z,55.39
2023-02-08T22:18:28.813Z,55.34
2023-02-08T22:20:55.970Z,55.19
2023-02-08T22:23:22.763Z,55.23
2023-02-08T22:25:52.486Z,55.21
2023-02-08T22:28:19.754Z,55.16
2023-02-08T22:30:48.549Z,54.82
2023-02-08T22:33:15.588Z,54.61
2023-02-08T22:35:42.807Z,54.77
2023-02-08T22:38:10.001Z,54.69
2023-02-08T22:40:36.947Z,54.59
2023-02-08T22:43:03.940Z,54.47
2023-02-08T22:45:31.245Z,54.50
2023-02-08T22:47:58.010Z,54.59
2023-02-08T22:50:24.843Z,54.75
2023-02-08T22:52:51.565Z,54.56
2023-02-08T22:55:18.535Z,54.58
2023-02-08T22:57:45.419Z,54.37
2023-02-08T23:00:13.963Z,54.48
2023-02-08T23:02:41.883Z,54.23
2023-02-08T23:05:08.736Z,54.16
2023-02-08T23:07:36.854Z,54.22
2023-02-08T23:10:05.028Z,54.44
2023-02-08T23:12:32.351Z,54.40
2023-02-08T23:14:59.250Z,54.25
2023-02-08T23:17:26.218Z,54.10
2023-02-08T23:19:53.040Z,54.27
2023-02-08T23:22:19.957Z,54.00
2023-02-08T23:24:46.794Z,53.96
2023-02-08T23:27:13.706Z,53.95
2023-02-08T23:29:40.720Z,53.62
2023-02-08T23:32:07.734Z,53.80
2023-02-08T23:34:34.834Z,53.63
2023-02-08T23:37:01.761Z,53.80
2023-02-08T23:39:28.679Z,53.41
2023-02-08T23:41:55.927Z,53.19
2023-02-08T23:44:23.060Z,53.40
2023-02-08T23:46:50.157Z,53.38
2023-02-08T23:49:16.986Z,53.58
2023-02-08T23:51:43.845Z,54.08
2023-02-08T23:54:11.144Z,53.79
2023-02-08T23:56:38.258Z,53.93
2023-02-08T23:59:07.630Z,53.96
